createdAt,value
2023-05-07T00:00:04.285Z,10.72
2023-05-07T00:02:32.227Z,10.77
2023-05-07T00:05:00.341Z,10.75
2023-05-07T00:07:29.751Z,10.75
2023-05-07T00:09:57.913Z,10.69
2023-05-07T00:12:26.482Z,10.61
2023-05-07T00:14:54.454Z,10.66
2023-05-07T00:17:22.448Z,10.68
2023-05-07T00:19:50.534Z,10.57
2023-05-07T00:22:18.444Z,10.52
2023-05-07T00:24:47.832Z,10.47
2023-05-07T00:27:15.700Z,10.38
2023-05-07T00:29:43.664Z,10.30
2023-05-07T00:32:11.697Z,10.25
2023-05-07T00:34:40.613Z,10.28
2023-05-07T00:37:08.528Z,10.25
2023-05-07T00:39:36.766Z,10.11
2023-05-07T00:42:06.160Z,10.13
2023-05-07T00:44:34.086Z,10.12
2023-05-07T00:47:05.754Z,10.15
2023-05-07T00:49:40.007Z,10.12
2023-05-07T00:52:09.078Z,10.15
2023-05-07T00:54:37.260Z,9.99
2023-05-07T00:57:07.416Z,9.98
2023-05-07T00:59:35.956Z,9.90
2023-05-07T01:02:03.959Z,9.87
2023-05-07T01:04:32.029Z,9.94
2023-05-07T01:07:02.718Z,9.94
2023-05-07T01:09:31.465Z,10.00
2023-05-07T01:12:00.682Z,10.04
2023-05-07T01:14:30.711Z,10.04
2023-05-07T01:16:59.918Z,10.02
2023-05-07T01:19:28.150Z,10.03
2023-05-07T01:22:03.869Z,9.84
2023-05-07T01:24:33.728Z,9.81
2023-05-07T01:27:02.452Z,9.76
2023-05-07T01:29:30.659Z,9.79
2023-05-07T01:32:00.815Z,9.55
2023-05-07T01:34:32.504Z,9.82
2023-05-07T01:37:01.563Z,9.77
2023-05-07T01:39:31.519Z,9.73
2023-05-07T01:42:01.630Z,9.70
2023-05-07T01:44:30.429Z,9.69
2023-05-07T01:46:59.474Z,9.71
2023-05-07T01:49:27.888Z,9.60
2023-05-07T01:51:56.750Z,9.57
2023-05-07T01:54:28.665Z,9.52
2023-05-07T01:56:58.118Z,9.56
2023-05-07T01:59:27.545Z,9.56
2023-05-07T02:01:55.595Z,9.63
2023-05-07T02:04:23.624Z,9.66
2023-05-07T02:06:51.482Z,9.60
2023-05-07T02:09:19.826Z,9.58
2023-05-07T02:11:47.718Z,9.57
2023-05-07T02:14:16.409Z,9.55
2023-05-07T02:16:45.757Z,9.46
2023-05-07T02:19:13.771Z,9.55
2023-05-07T02:21:41.639Z,9.51
2023-05-07T02:24:09.806Z,9.58
2023-05-07T02:26:37.695Z,9.60
2023-05-07T02:29:05.606Z,9.64
2023-05-07T02:31:34.981Z,9.64
2023-05-07T02:34:04.963Z,9.59
2023-05-07T02:36:32.946Z,9.60
2023-05-07T02:39:01.249Z,9.63
2023-05-07T02:41:29.496Z,9.62
2023-05-07T02:43:57.380Z,9.61
2023-05-07T02:46:25.400Z,9.52
2023-05-07T02:48:53.336Z,9.56
2023-05-07T02:51:25.520Z,9.55
2023-05-07T02:53:54.154Z,9.60
2023-05-07T02:56:22.096Z,9.63
2023-05-07T02:58:50.019Z,9.68
2023-05-07T03:01:18.001Z,9.72
2023-05-07T03:03:46.764Z,9.71
2023-05-07T03:06:14.700Z,9.70
2023-05-07T03:08:43.964Z,9.74
2023-05-07T03:11:12.135Z,9.77
2023-05-07T03:13:40.029Z,9.76
2023-05-07T03:16:08.667Z,9.74
2023-05-07T03:18:36.760Z,9.76
2023-05-07T03:21:04.989Z,9.77
2023-05-07T03:23:32.955Z,9.82
2023-05-07T03:26:02.226Z,9.81
2023-05-07T03:28:30.182Z,9.80
2023-05-07T03:30:58.474Z,9.80
2023-05-07T03:33:26.464Z,9.71
2023-05-07T03:35:54.389Z,9.77
2023-05-07T03:38:22.306Z,9.68
2023-05-07T03:40:50.169Z,9.64
2023-05-07T03:43:19.489Z,9.69
2023-05-07T03:45:47.417Z,9.78
2023-05-07T03:48:15.306Z,9.79
2023-05-07T03:50:43.192Z,9.81
2023-05-07T03:53:11.206Z,9.91
2023-05-07T03:55:39.067Z,9.96
2023-05-07T03:58:07.023Z,9.90
2023-05-07T04:00:39.488Z,9.94
2023-05-07T04:03:08.528Z,9.92
2023-05-07T04:05:36.657Z,9.92
2023-05-07T04:08:04.734Z,9.84
2023-05-07T04:10:32.610Z,9.85
2023-05-07T04:13:00.498Z,9.79
2023-05-07T04:15:28.473Z,9.91
2023-05-07T04:17:57.726Z,9.78
2023-05-07T04:20:25.868Z,9.80
2023-05-07T04:22:53.731Z,9.82
2023-05-07T04:25:21.709Z,9.73
2023-05-07T04:27:49.958Z,9.83
2023-05-07T04:30:18.214Z,9.91
2023-05-07T04:32:46.548Z,9.80
2023-05-07T04:35:15.866Z,9.75
2023-05-07T04:37:43.823Z,9.80
2023-05-07T04:40:12.468Z,9.74
2023-05-07T04:42:40.684Z,9.75
2023-05-07T04:45:09.685Z,9.89
2023-05-07T04:47:37.654Z,9.86
2023-05-07T04:50:06.040Z,9.86
2023-05-07T04:52:35.471Z,9.94
2023-05-07T04:55:03.689Z,10.06
2023-05-07T04:57:31.890Z,10.15
2023-05-07T04:59:59.733Z,10.23
2023-05-07T05:02:27.638Z,10.36
2023-05-07T05:04:55.635Z,10.44
2023-05-07T05:07:23.619Z,10.56
2023-05-07T05:09:52.978Z,10.65
2023-05-07T05:12:20.955Z,10.74
2023-05-07T05:14:48.937Z,10.81
2023-05-07T05:17:16.854Z,10.89
2023-05-07T05:19:44.711Z,11.00
2023-05-07T05:22:12.700Z,11.05
2023-05-07T05:24:40.793Z,11.15
2023-05-07T05:27:10.086Z,11.06
2023-05-07T05:29:38.002Z,11.21
2023-05-07T05:32:06.083Z,11.24
2023-05-07T05:34:34.710Z,11.29
2023-05-07T05:37:02.604Z,11.24
2023-05-07T05:39:43.109Z,11.53
2023-05-07T05:42:12.379Z,11.72
2023-05-07T05:44:40.354Z,11.83
2023-05-07T05:47:08.264Z,11.87
2023-05-07T05:49:36.589Z,12.04
2023-05-07T05:52:04.596Z,12.29
2023-05-07T05:54:32.441Z,12.28
2023-05-07T05:57:00.522Z,12.24
2023-05-07T05:59:29.929Z,12.48
2023-05-07T06:01:58.009Z,12.64
2023-05-07T06:04:26.092Z,12.66
2023-05-07T06:06:54.167Z,12.80
2023-05-07T06:09:22.307Z,12.85
2023-05-07T06:11:50.973Z,12.99
2023-05-07T06:14:18.954Z,13.00
2023-05-07T06:16:48.354Z,12.71
2023-05-07T06:19:26.347Z,13.00
2023-05-07T06:21:54.537Z,13.17
2023-05-07T06:24:22.378Z,13.18
2023-05-07T06:26:50.439Z,13.44
2023-05-07T06:29:18.351Z,13.38
2023-05-07T06:31:46.335Z,13.44
2023-05-07T06:34:16.194Z,13.51
2023-05-07T06:36:44.189Z,13.57
2023-05-07T06:39:12.112Z,13.68
2023-05-07T06:41:40.067Z,13.79
2023-05-07T06:44:09.793Z,13.87
2023-05-07T06:46:37.947Z,13.97
2023-05-07T06:49:06.040Z,14.09
2023-05-07T06:51:35.523Z,14.20
2023-05-07T06:54:05.458Z,14.16
2023-05-07T06:56:33.452Z,14.45
2023-05-07T06:59:02.407Z,14.54
2023-05-07T07:01:30.524Z,14.67
2023-05-07T07:03:58.414Z,14.63
2023-05-07T07:06:26.549Z,14.69
2023-05-07T07:08:55.769Z,14.80
2023-05-07T07:11:23.741Z,14.82
2023-05-07T07:13:51.779Z,14.78
2023-05-07T07:16:19.813Z,14.84
2023-05-07T07:18:47.820Z,14.89
2023-05-07T07:21:15.798Z,15.08
2023-05-07T07:23:43.729Z,15.17
2023-05-07T07:26:13.048Z,15.31
2023-05-07T07:28:47.652Z,15.34
2023-05-07T07:31:16.309Z,15.55
2023-05-07T07:33:44.416Z,15.66
2023-05-07T07:36:12.321Z,15.78
2023-05-07T07:38:40.247Z,15.79
2023-05-07T07:41:10.533Z,15.92
2023-05-07T07:43:39.794Z,16.08
2023-05-07T07:46:07.714Z,16.19
2023-05-07T07:48:35.838Z,16.22
2023-05-07T07:51:04.008Z,16.43
2023-05-07T07:53:31.959Z,16.43
2023-05-07T07:56:00.195Z,16.63
2023-05-07T07:58:28.128Z,16.74
2023-05-07T08:00:57.533Z,16.62
2023-05-07T08:03:25.517Z,16.67
2023-05-07T08:05:53.427Z,16.78
2023-05-07T08:08:21.371Z,16.77
2023-05-07T08:10:51.102Z,16.85
2023-05-07T08:13:19.966Z,16.84
2023-05-07T08:15:47.882Z,16.96
2023-05-07T08:18:17.195Z,17.04
2023-05-07T08:20:45.256Z,17.16
2023-05-07T08:23:13.401Z,17.20
2023-05-07T08:25:41.277Z,17.32
2023-05-07T08:28:10.156Z,17.43
2023-05-07T08:30:38.239Z,17.63
2023-05-07T08:33:06.328Z,17.63
2023-05-07T08:35:35.845Z,17.90
2023-05-07T08:38:04.174Z,18.03
2023-05-07T08:40:38.862Z,18.29
2023-05-07T08:43:08.439Z,18.28
2023-05-07T08:45:37.253Z,18.41
2023-05-07T08:48:11.015Z,18.51
2023-05-07T08:50:40.575Z,18.38
2023-05-07T08:53:08.633Z,18.30
2023-05-07T08:55:36.910Z,17.91
2023-05-07T08:58:07.798Z,18.37
2023-05-07T09:00:36.809Z,18.58
2023-05-07T09:03:05.007Z,18.73
2023-05-07T09:05:32.882Z,18.78
2023-05-07T09:08:05.243Z,18.98
2023-05-07T09:10:36.904Z,19.09
2023-05-07T09:13:06.365Z,19.31
2023-05-07T09:15:34.385Z,19.47
2023-05-07T09:18:03.458Z,19.64
2023-05-07T09:20:32.920Z,19.69
2023-05-07T09:23:02.323Z,19.62
2023-05-07T09:25:31.185Z,19.73
2023-05-07T09:27:59.226Z,19.83
2023-05-07T09:30:30.600Z,20.00
2023-05-07T09:32:58.617Z,20.05
2023-05-07T09:35:28.449Z,20.03
2023-05-07T09:37:58.090Z,20.08
2023-05-07T09:40:28.639Z,20.19
2023-05-07T09:42:56.993Z,20.28
2023-05-07T09:45:25.797Z,20.42
2023-05-07T09:47:57.794Z,20.50
2023-05-07T09:50:30.435Z,20.66
2023-05-07T09:52:59.295Z,20.47
2023-05-07T09:55:29.071Z,20.61
2023-05-07T09:57:57.659Z,20.55
2023-05-07T10:00:27.686Z,20.58
2023-05-07T10:02:58.507Z,20.74
2023-05-07T10:05:27.219Z,21.11
2023-05-07T10:07:56.494Z,21.45
2023-05-07T10:10:24.840Z,21.52
2023-05-07T10:12:55.520Z,21.59
2023-05-07T10:15:25.739Z,21.89
2023-05-07T10:17:55.650Z,21.87
2023-05-07T10:20:23.829Z,21.80
2023-05-07T10:22:54.316Z,21.99
2023-05-07T10:25:25.246Z,21.94
2023-05-07T10:27:57.026Z,21.93
2023-05-07T10:30:33.079Z,22.11
2023-05-07T10:33:07.195Z,22.11
2023-05-07T10:35:41.690Z,22.29
2023-05-07T10:38:10.307Z,22.10
2023-05-07T10:40:38.487Z,22.07
2023-05-07T10:43:10.958Z,22.17
2023-05-07T10:45:39.183Z,22.60
2023-05-07T10:48:28.872Z,23.28
2023-05-07T10:51:20.482Z,23.93
2023-05-07T10:53:48.394Z,24.61
2023-05-07T10:56:29.974Z,24.92
2023-05-07T10:59:43.788Z,25.23
2023-05-07T11:02:15.428Z,25.68
2023-05-07T11:04:43.652Z,25.93
2023-05-07T11:07:33.772Z,26.00
2023-05-07T11:10:06.944Z,25.51
2023-05-07T11:13:05.074Z,25.47
2023-05-07T11:15:45.232Z,25.70
2023-05-07T11:18:16.029Z,25.84
2023-05-07T11:20:52.633Z,25.90
2023-05-07T11:24:00.815Z,25.79
2023-05-07T11:26:30.770Z,26.43
2023-05-07T11:29:01.271Z,26.13
2023-05-07T11:31:31.108Z,26.56
2023-05-07T11:34:01.761Z,27.01
2023-05-07T11:36:35.221Z,26.94
2023-05-07T11:39:03.183Z,27.06
2023-05-07T11:41:38.189Z,26.90
2023-05-07T11:44:06.518Z,27.43
2023-05-07T11:46:35.769Z,27.80
2023-05-07T11:49:05.571Z,26.87
2023-05-07T11:51:33.509Z,27.14
2023-05-07T11:54:01.394Z,26.59
2023-05-07T11:56:29.257Z,26.58
2023-05-07T11:58:57.191Z,26.16
2023-05-07T12:01:25.134Z,26.84
2023-05-07T12:03:53.079Z,27.59
2023-05-07T12:06:22.476Z,28.26
2023-05-07T12:08:50.411Z,27.85
2023-05-07T12:11:24.031Z,28.46
2023-05-07T12:13:52.104Z,28.36
2023-05-07T12:16:20.349Z,29.13
2023-05-07T12:18:49.276Z,28.44
2023-05-07T12:21:19.380Z,28.16
2023-05-07T12:23:49.128Z,28.15
2023-05-07T12:26:17.075Z,28.69
2023-05-07T12:28:44.992Z,28.91
2023-05-07T12:31:12.993Z,29.13
2023-05-07T12:33:42.201Z,29.29
2023-05-07T12:36:10.617Z,28.82
2023-05-07T12:38:40.001Z,28.27
2023-05-07T12:41:11.102Z,27.95
2023-05-07T12:43:39.394Z,27.66
2023-05-07T12:46:09.581Z,27.76
2023-05-07T12:48:41.077Z,27.97
2023-05-07T12:51:11.238Z,28.05
2023-05-07T12:53:43.306Z,28.55
2023-05-07T12:56:12.748Z,28.64
2023-05-07T12:58:40.821Z,28.45
2023-05-07T13:01:11.173Z,29.10
2023-05-07T13:03:40.329Z,29.06
2023-05-07T13:06:10.727Z,29.62
2023-05-07T13:08:41.432Z,29.24
2023-05-07T13:11:11.297Z,28.99
2023-05-07T13:13:41.968Z,29.51
2023-05-07T13:16:11.626Z,29.07
2023-05-07T13:18:41.339Z,29.27
2023-05-07T13:21:09.836Z,29.26
2023-05-07T13:23:39.729Z,29.54
2023-05-07T13:26:25.016Z,29.55
2023-05-07T13:28:55.932Z,29.44
2023-05-07T13:31:23.977Z,29.12
2023-05-07T13:33:52.326Z,28.36
2023-05-07T13:36:20.383Z,28.42
2023-05-07T13:38:48.591Z,28.21
2023-05-07T13:41:16.787Z,28.45
2023-05-07T13:43:44.722Z,28.43
2023-05-07T13:46:14.247Z,28.84
2023-05-07T13:48:42.285Z,29.19
2023-05-07T13:51:10.349Z,29.81
2023-05-07T13:53:38.344Z,30.03
2023-05-07T13:56:07.080Z,30.65
2023-05-07T13:58:36.505Z,30.44
2023-05-07T14:01:06.316Z,29.90
2023-05-07T14:03:36.307Z,29.43
2023-05-07T14:06:04.803Z,29.21
2023-05-07T14:08:32.886Z,28.89
2023-05-07T14:11:04.524Z,29.37
2023-05-07T14:13:32.963Z,29.50
2023-05-07T14:16:01.693Z,29.43
2023-05-07T14:18:30.144Z,29.34
2023-05-07T14:20:59.869Z,29.35
2023-05-07T14:23:28.294Z,28.80
2023-05-07T14:25:58.228Z,28.30
2023-05-07T14:28:26.368Z,27.46
2023-05-07T14:30:57.873Z,27.21
2023-05-07T14:33:29.155Z,27.03
2023-05-07T14:35:57.341Z,26.79
2023-05-07T14:38:26.888Z,26.83
2023-05-07T14:40:56.924Z,27.35
2023-05-07T14:43:30.399Z,28.30
2023-05-07T14:45:58.293Z,28.48
2023-05-07T14:48:26.469Z,28.41
2023-05-07T14:50:54.395Z,28.09
2023-05-07T14:53:22.698Z,27.89
2023-05-07T14:55:52.399Z,27.78
2023-05-07T14:58:22.383Z,28.32
2023-05-07T15:00:50.797Z,28.58
2023-05-07T15:03:19.951Z,28.19
2023-05-07T15:05:50.991Z,28.36
2023-05-07T15:08:20.073Z,28.87
2023-05-07T15:10:51.096Z,28.77
2023-05-07T15:13:20.539Z,28.58
2023-05-07T15:15:48.564Z,28.61
2023-05-07T15:18:17.192Z,28.53
2023-05-07T15:20:47.060Z,28.87
2023-05-07T15:23:15.416Z,29.21
2023-05-07T15:25:43.449Z,29.02
2023-05-07T15:28:12.575Z,28.51
2023-05-07T15:30:41.932Z,28.54
2023-05-07T15:33:09.887Z,28.70
2023-05-07T15:35:37.814Z,28.37
2023-05-07T15:38:06.411Z,28.24
2023-05-07T15:40:36.239Z,27.93
2023-05-07T15:43:04.150Z,27.63
2023-05-07T15:45:32.086Z,27.45
2023-05-07T15:48:01.411Z,27.70
2023-05-07T15:50:29.723Z,27.86
2023-05-07T15:52:58.125Z,27.80
2023-05-07T15:55:26.616Z,27.65
2023-05-07T15:57:55.188Z,27.56
2023-05-07T16:00:23.451Z,27.73
2023-05-07T16:02:51.705Z,27.72
2023-05-07T16:05:21.245Z,27.50
2023-05-07T16:07:49.120Z,27.67
2023-05-07T16:10:17.392Z,27.34
2023-05-07T16:12:45.438Z,27.22
2023-05-07T16:15:14.050Z,27.21
2023-05-07T16:17:42.217Z,27.19
2023-05-07T16:20:13.154Z,27.14
2023-05-07T16:22:42.640Z,26.94
2023-05-07T16:25:11.509Z,26.99
2023-05-07T16:27:39.664Z,26.69
2023-05-07T16:30:09.045Z,26.66
2023-05-07T16:32:37.205Z,26.59
2023-05-07T16:35:06.399Z,26.00
2023-05-07T16:37:35.144Z,25.65
2023-05-07T16:40:07.351Z,25.46
2023-05-07T16:42:35.558Z,25.12
2023-05-07T16:45:04.641Z,25.19
2023-05-07T16:47:32.917Z,24.97
2023-05-07T16:50:01.233Z,24.74
2023-05-07T16:52:31.088Z,24.56
2023-05-07T16:55:01.452Z,24.37
2023-05-07T16:57:31.130Z,23.93
2023-05-07T17:00:00.075Z,23.67
2023-05-07T17:02:28.533Z,23.42
2023-05-07T17:04:56.587Z,23.29
2023-05-07T17:07:26.527Z,23.02
2023-05-07T17:09:54.501Z,23.04
2023-05-07T17:12:22.723Z,22.80
2023-05-07T17:14:51.999Z,22.53
2023-05-07T17:17:20.428Z,22.44
2023-05-07T17:19:48.391Z,22.26
2023-05-07T17:22:16.455Z,22.30
2023-05-07T17:24:44.402Z,21.96
2023-05-07T17:27:12.371Z,21.57
2023-05-07T17:29:40.438Z,21.84
2023-05-07T17:32:09.845Z,21.50
2023-05-07T17:34:37.869Z,21.27
2023-05-07T17:37:05.721Z,21.33
2023-05-07T17:39:33.642Z,21.21
2023-05-07T17:42:01.636Z,21.17
2023-05-07T17:44:29.585Z,21.11
2023-05-07T17:46:57.632Z,20.76
2023-05-07T17:49:26.931Z,20.93
2023-05-07T17:51:55.726Z,20.88
2023-05-07T17:54:26.319Z,20.76
2023-05-07T17:56:54.454Z,20.65
2023-05-07T17:59:22.432Z,20.55
2023-05-07T18:01:53.012Z,20.37
2023-05-07T18:04:21.745Z,20.34
2023-05-07T18:06:51.346Z,20.34
2023-05-07T18:09:19.369Z,20.21
2023-05-07T18:11:47.229Z,20.05
2023-05-07T18:14:15.183Z,19.94
2023-05-07T18:16:43.323Z,19.87
2023-05-07T18:19:12.303Z,19.81
2023-05-07T18:21:40.420Z,19.84
2023-05-07T18:24:11.130Z,19.66
2023-05-07T18:26:39.238Z,19.48
2023-05-07T18:29:07.185Z,19.34
2023-05-07T18:31:37.559Z,19.38
2023-05-07T18:34:06.636Z,19.31
2023-05-07T18:36:34.884Z,19.19
2023-05-07T18:39:03.507Z,19.12
2023-05-07T18:41:32.844Z,19.04
2023-05-07T18:44:00.848Z,19.05
2023-05-07T18:46:29.507Z,19.10
2023-05-07T18:48:57.481Z,19.04
2023-05-07T18:51:25.472Z,18.92
2023-05-07T18:53:53.380Z,18.75
2023-05-07T18:56:21.827Z,18.82
2023-05-07T18:58:51.172Z,18.75
2023-05-07T19:01:19.101Z,18.71
2023-05-07T19:03:47.116Z,18.56
2023-05-07T19:06:15.172Z,18.51
2023-05-07T19:08:43.234Z,18.38
2023-05-07T19:11:11.200Z,18.50
2023-05-07T19:13:39.196Z,18.18
2023-05-07T19:16:10.394Z,18.40
2023-05-07T19:18:38.505Z,18.35
2023-05-07T19:21:06.724Z,18.22
2023-05-07T19:23:37.087Z,18.16
2023-05-07T19:26:04.972Z,18.11
2023-05-07T19:28:32.920Z,17.95
2023-05-07T19:31:00.953Z,17.92
2023-05-07T19:33:30.869Z,17.84
2023-05-07T19:35:59.839Z,17.78
2023-05-07T19:38:28.010Z,17.69
2023-05-07T19:40:57.376Z,17.57
2023-05-07T19:43:25.391Z,17.49
2023-05-07T19:45:55.072Z,17.37
2023-05-07T19:48:22.991Z,17.43
2023-05-07T19:50:52.255Z,17.42
2023-05-07T19:53:20.353Z,17.38
2023-05-07T19:55:48.256Z,17.28
2023-05-07T19:58:16.926Z,17.23
2023-05-07T20:00:45.145Z,17.19
2023-05-07T20:03:18.433Z,17.12
2023-05-07T20:05:47.208Z,17.11
2023-05-07T20:08:16.495Z,17.03
2023-05-07T20:10:44.680Z,17.02
2023-05-07T20:13:12.792Z,16.79
2023-05-07T20:15:41.060Z,16.88
2023-05-07T20:18:09.308Z,16.75
2023-05-07T20:20:37.516Z,16.72
2023-05-07T20:23:05.420Z,16.78
2023-05-07T20:25:34.686Z,16.72
2023-05-07T20:28:02.963Z,16.70
2023-05-07T20:30:30.839Z,16.66
2023-05-07T20:32:59.059Z,16.53
2023-05-07T20:35:27.140Z,16.47
2023-05-07T20:37:55.106Z,16.53
2023-05-07T20:40:23.000Z,16.22
2023-05-07T20:42:52.616Z,16.29
2023-05-07T20:45:20.899Z,16.41
2023-05-07T20:47:48.815Z,16.09
2023-05-07T20:50:16.829Z,16.28
2023-05-07T20:52:45.226Z,16.24
2023-05-07T20:55:13.145Z,16.08
2023-05-07T20:57:43.746Z,16.14
2023-05-07T21:00:14.225Z,16.07
2023-05-07T21:02:42.584Z,16.04
2023-05-07T21:05:10.843Z,16.09
2023-05-07T21:07:38.810Z,16.00
2023-05-07T21:10:07.846Z,15.97
2023-05-07T21:12:39.933Z,15.97
2023-05-07T21:15:11.411Z,15.98
2023-05-07T21:17:40.876Z,15.93
2023-05-07T21:20:10.101Z,15.87
2023-05-07T21:22:38.016Z,15.82
2023-05-07T21:25:06.495Z,15.78
2023-05-07T21:27:34.402Z,15.78
2023-05-07T21:30:04.892Z,15.65
2023-05-07T21:32:33.070Z,15.54
2023-05-07T21:35:02.340Z,15.55
2023-05-07T21:37:30.392Z,15.50
2023-05-07T21:39:58.349Z,15.47
2023-05-07T21:42:26.452Z,15.41
2023-05-07T21:44:54.419Z,15.36
2023-05-07T21:47:22.365Z,15.41
2023-05-07T21:49:53.234Z,15.26
2023-05-07T21:52:25.985Z,15.15
2023-05-07T21:54:54.047Z,15.37
2023-05-07T21:57:22.274Z,15.36
2023-05-07T21:59:50.184Z,15.19
2023-05-07T22:02:18.218Z,15.21
2023-05-07T22:04:46.642Z,15.23
2023-05-07T22:07:14.586Z,15.15
2023-05-07T22:09:43.851Z,15.17
2023-05-07T22:12:11.779Z,15.15
2023-05-07T22:14:39.706Z,15.09
2023-05-07T22:17:07.652Z,15.09
2023-05-07T22:19:35.551Z,15.00
2023-05-07T22:22:03.615Z,14.95
2023-05-07T22:24:31.685Z,14.77
2023-05-07T22:27:00.970Z,14.85
2023-05-07T22:29:29.260Z,14.74
2023-05-07T22:31:57.176Z,14.69
2023-05-07T22:34:25.098Z,14.66
2023-05-07T22:36:53.038Z,14.63
2023-05-07T22:39:21.007Z,14.60
2023-05-07T22:41:49.612Z,14.42
2023-05-07T22:44:18.916Z,14.47
2023-05-07T22:46:46.775Z,14.50
2023-05-07T22:49:14.618Z,14.50
2023-05-07T22:51:42.524Z,14.50
2023-05-07T22:54:11.019Z,14.42
2023-05-07T22:56:40.815Z,14.28
2023-05-07T22:59:08.971Z,14.23
2023-05-07T23:01:38.491Z,14.31
2023-05-07T23:04:06.946Z,14.34
2023-05-07T23:06:34.866Z,14.35
2023-05-07T23:09:02.811Z,14.30
2023-05-07T23:11:30.681Z,14.39
2023-05-07T23:13:58.828Z,14.31
2023-05-07T23:16:27.208Z,14.28
2023-05-07T23:18:56.795Z,14.15
2023-05-07T23:21:24.866Z,14.24
2023-05-07T23:23:52.812Z,14.17
2023-05-07T23:26:20.897Z,14.22
2023-05-07T23:28:48.884Z,14.25
2023-05-07T23:31:16.832Z,14.26
2023-05-07T23:33:44.753Z,14.30
2023-05-07T23:36:14.049Z,14.27
2023-05-07T23:38:42.000Z,14.14
2023-05-07T23:41:09.996Z,14.13
2023-05-07T23:43:37.936Z,14.12
2023-05-07T23:46:05.846Z,14.08
2023-05-07T23:48:33.770Z,14.02
2023-05-07T23:51:01.634Z,14.02
2023-05-07T23:53:30.962Z,13.93
2023-05-07T23:55:58.825Z,13.92
2023-05-07T23:58:26.990Z,13.78
